^^

Nearby METAR Reports

 

KFNL - Ft Collins/Lovel, Colorado, USA
Distance from station: N 2mi, 3km
Updated: 09/23/2021 4:56 am
Clear
Clear
 Wind from calm
Wind: Calm
Temperature: 48°F , 9°C
Dew Point: 37°F , 3°C
Humidity: 66%
Barometer: 1019.3 hPa
Clouds: Clear
Visibility: 10 miles , 16 km
2021/09/23 10:56 KFNL 231056Z 00000KT 10SM CLR 09/03 A3010 RMK AO2 SLP142 T00940028
KLMO - Longmont/Vbrand, Colorado, USA
Distance from station: SSW 19mi, 31km
Updated: 09/23/2021 5:15 am
Clear
Clear
 Wind from calm
Wind: Calm
Temperature: 45°F , 7°C
Dew Point: 34°F , 1°C
Humidity: 66%
Barometer: 1020 hPa
Clouds: Clear
Visibility: 10 miles , 16 km
2021/09/23 11:15 KLMO 231115Z AUTO 00000KT 10SM CLR 07/01 A3012 RMK AO2 T00650005
 
KGXY - Greeley/Weld, Colorado, USA
Distance from station: E 21mi, 34km
Updated: 09/23/2021 4:56 am
Clear
Clear
 Wind from NNW
Wind: NNW 7 mph , 11 km/h
Temperature: 37°F , 3°C
Wind Chill: 32°F , 0°C
Dew Point: 28°F , -2°C
Humidity: 70%
Barometer: 1019.3 hPa
Clouds: Clear
Visibility: 10 miles , 16 km
2021/09/23 10:56 KGXY 231056Z AUTO 34006KT 10SM CLR 03/M02 A3010 RMK AO2 SLP175 T00331017
KEIK - Erie Muni, Colorado, USA
Distance from station: S 28mi, 45km
Updated: 09/23/2021 5:15 am
Clear
Clear
 Wind from S
Wind: S 3 mph , 6 km/h
Temperature: 45°F , 7°C
Dew Point: 30°F , -1°C
Humidity: 57%
Barometer: 1019.3 hPa
Clouds: Clear
Visibility: 10 miles , 16 km
2021/09/23 11:15 KEIK 231115Z AUTO 19003KT 10SM CLR 07/M01 A3010 RMK AO2 T00651011 PWINO
 
KBDU - Boulder Muni, Colorado, USA
Distance from station: SSW 29mi, 47km
Updated: 09/23/2021 5:35 am
Clear
Clear
 Wind from calm
Wind: Calm
Temperature: 54°F , 12°C
Dew Point: 32°F , 0°C
Humidity: 44%
Barometer: 1019.3 hPa
Clouds: Clear
Visibility: 10 miles , 16 km
2021/09/23 11:35 KBDU 231135Z AUTO 00000KT 10SM CLR 12/00 A3010 RMK AO2
KBJC - Broomfield/Jeffc, Colorado, USA
Distance from station: S 36mi, 58km
Updated: 09/23/2021 5:15 am
Clear
Clear
 Wind from SE
Wind: SE 3 mph , 6 km/h
Temperature: 54°F , 12°C
Dew Point: 25°F , -4°C
Humidity: 33%
Barometer: 1020.3 hPa
Clouds: Clear
Visibility: 10 miles , 16 km
2021/09/23 11:15 KBJC 231115Z AUTO 14003KT 10SM CLR 12/M04 A3013 RMK AO2
 
KDEN - Denver (dia), Colorado, USA
Distance from station: SSE 44mi, 70km
Updated: 09/23/2021 4:53 am
Few Clouds
Few Clouds
 Wind from SW
Wind: SW 13 mph , 20 km/h
Temperature: 55°F , 13°C
Dew Point: 25°F , -4°C
Humidity: 31%
Barometer: 1019.3 hPa
Clouds: Few Clouds
Visibility: 10 miles , 16 km
Cloud details: Few Clouds 22000 ft
2021/09/23 10:53 KDEN 231053Z 22011KT 10SM FEW220 13/M04 A3010 RMK AO2 SLP124 T01331044
KFEW - Warren Air Base, Wyoming, USA
Distance from station: N 50mi, 80km
Updated: 09/23/2021 12:58 am
NOT Current
Clear
Clear
 Wind from WNW
Wind: WNW 5 mph , 7 km/h
Temperature: 48°F , 9°C
Wind Chill: 46°F , 8°C
Dew Point: 21°F , -6°C
Humidity: 34%
Barometer: 1022 hPa
Clouds: Clear
Visibility: 10 miles , 16 km
2021/09/23 06:58 KFEW 230658Z AUTO 30004KT 10SM CLR 09/M06 A3018 RMK AO2 SLP157 T00931065 402470000 $
 
KBKF - Buckley Angb/Den, Colorado, USA
Distance from station: SSE 50mi, 81km
Updated: 09/23/2021 4:58 am
Few Clouds
Few Clouds
 Wind from S
Wind: S 9 mph , 15 km/h
Temperature: 52°F , 11°C
Dew Point: 25°F , -4°C
Humidity: 35%
Barometer: 1020 hPa
Clouds: Few Clouds
Visibility: 10 miles , 16 km
Cloud details: Few Clouds 22000 ft
2021/09/23 10:58 KBKF 231058Z 18008KT 10SM FEW220 11/M04 A3012 RMK AO2A SLP136 T01101043